Список аэропортов
Фактическая погода:

24 мая, 15:50
Температура: +23°C (+23.0*)
Ветер: перем. 2 м/с
Давление: *770 мм
неб. облачность
1440 м
Время (МСК)Темп. СВетерВлажностьДавлениеОблачностьОсадки
15:00+22С, 1 м/с51%1026 гПас прояснениями
16:00+24С, 1 м/с47%1025 гПас прояснениями
17:00+24С, 1 м/с45%1025 гПас прояснениями
18:00+25С, 1 м/с44%1025 гПас прояснениями
19:00+25С, 2 м/с44%1024 гПаоблачно
20:00+25С, 2 м/с44%1024 гПаоблачно
21:00+25С, 2 м/с46%1024 гПаоблачно
22:00+24С, 3 м/с47%1024 гПас прояснениями
23:00+23С, 2 м/с53%1024 гПас прояснениями
25 мая
00:00+22С, 2 м/с58%1025 гПас прояснениями
01:00+20ЮВ, 2 м/с64%1025 гПас прояснениями
02:00+19Ю, 4 м/с72%1025 гПамалооблачно
03:00+18ЮЗ, 3 м/с76%1025 гПамалооблачно
04:00+16ЮЗ, 1 м/с83%1025 гПамалооблачно
05:00+15В, 1 м/с88%1025 гПамалооблачно
06:00+15В, 2 м/с91%1024 гПас прояснениями
07:00+14В, 1 м/с94%1025 гПас прояснениями
08:00+14СВ, 1 м/с92%1025 гПас прояснениями
09:00+16СВ, 1 м/с86%1025 гПас прояснениями
10:00+18ЮВ, 1 м/с73%1025 гПамалооблачно
11:00+20ЮВ, 2 м/с63%1025 гПаясно
12:00+22В, 3 м/с52%1025 гПаясно
13:00+24В, 4 м/с48%1024 гПаясно
14:00+25В, 5 м/с45%1024 гПаясно
15:00+26В, 5 м/с43%1024 гПаясно
16:00+26В, 5 м/с42%1023 гПамалооблачно
17:00+26В, 6 м/с42%1023 гПамалооблачно
18:00+26В, 7 м/с41%1022 гПамалооблачно
19:00+25В, 8 м/с40%1022 гПаясно
20:00+24В, 9 м/с41%1022 гПаясно
21:00+23В, 8 м/с43%1022 гПаясно
22:00+22В, 7 м/с45%1021 гПаясно
23:00+20В, 6 м/с49%1022 гПаясно
26 мая
00:00+19В, 5 м/с52%1022 гПаясно
01:00+17В, 5 м/с55%1022 гПаясно
02:00+16В, 5 м/с61%1021 гПаясно
03:00+15В, 5 м/с66%1021 гПаясно
04:00+14В, 4 м/с72%1021 гПаясно
05:00+14В, 4 м/с79%1020 гПаясно
06:00+13В, 3 м/с87%1020 гПаясно
07:00+12В, 3 м/с93%1020 гПаясно
08:00+12В, 4 м/с96%1020 гПамалооблачно
09:00+13В, 4 м/с90%1020 гПаясно
10:00+16В, 4 м/с76%1020 гПаясно
11:00+20В, 5 м/с58%1020 гПаясно
12:00+23ЮВ, 5 м/с48%1020 гПаясно
13:00+24ЮВ, 6 м/с42%1019 гПаясно
14:00+25ЮВ, 7 м/с40%1019 гПаясно
15:00+26ЮВ, 7 м/с38%1018 гПаясно